Aviation Digital Data Service (ADDS)

Output produced by METARs form (1818 UTC 24 June 2019)
found at http://www.aviationweather.gov/metar/data/
 
Forecast for: RJSS (SENDAI AIRPORT , JP)
Text: TAF RJSS 241705Z 2418/2600 24003KT 9999 FEW005 SCT015 BKN030
Forecast period: 1800 to 2200 UTC 24 June 2019
Forecast type: FROM: standard forecast or significant change
Winds: from the WSW (240 degrees) at 3 MPH (3 knots; 1.5 m/s)
Visibility: 6 or more miles 10+ km)
Ceiling: 3000 feet AGL
Clouds: few clouds at 500 feet AGL
scattered clouds at 1500 feet AGL
broken clouds at 3000 feet AGL
Weather: no significant weather forecast for this period
Text: TEMPO 2418/2421 4000 -SHRA BR FEW005 BKN008 BKN015
Forecast period: 1800 to 2100 UTC 24 June 2019
Forecast type: TEMPORARY: The following changes expected for less than half the time period
Visibility: 2.49 miles (4.01 km)
Ceiling: 800 feet AGL
Clouds: few clouds at 500 feet AGL
broken clouds at 800 feet AGL
broken clouds at 1500 feet AGL
Weather: -SHRA BR  (light rain showers, mist)
Text: BECMG 2422/2500 14008KT
Forecast period: 2200 UTC 24 June 2019 to 0000 UTC 26 June 2019
Forecast type: BECOMING: Conditions expected to become as follows by 0000 UTC 25 June 2019
Winds: from the SE (140 degrees) at 9 MPH (8 knots; 4.1 m/s)
Visibility: 6 or more miles 10+ km)
Ceiling: 3000 feet AGL
Clouds: few clouds at 500 feet AGL
scattered clouds at 1500 feet AGL
broken clouds at 3000 feet AGL
Weather: no significant weather forecast for this period